sensor_id;sensor_type;location;lat;lon;timestamp;pressure;altitude;pressure_sealevel;temperature;humidity
29169;BME280;16219;42.864;23.360;2024-02-21T00:00:02;96520.78;;;6.22;100.00
29169;BME280;16219;42.864;23.360;2024-02-21T00:02:30;96521.28;;;6.24;100.00
29169;BME280;16219;42.864;23.360;2024-02-21T00:04:57;96519.72;;;6.33;100.00
29169;BME280;16219;42.864;23.360;2024-02-21T00:07:24;96522.31;;;6.38;100.00
29169;BME280;16219;42.864;23.360;2024-02-21T00:09:52;96519.16;;;6.36;100.00
29169;BME280;16219;42.864;23.360;2024-02-21T00:12:19;96521.28;;;6.34;100.00
29169;BME280;16219;42.864;23.360;2024-02-21T00:14:46;96517.88;;;6.34;100.00
29169;BME280;16219;42.864;23.360;2024-02-21T00:17:13;96515.75;;;6.41;100.00
29169;BME280;16219;42.864;23.360;2024-02-21T00:19:40;96517.34;;;6.42;100.00
29169;BME280;16219;42.864;23.360;2024-02-21T00:22:07;96516.53;;;6.46;100.00
29169;BME280;16219;42.864;23.360;2024-02-21T00:24:34;96502.41;;;6.37;100.00
29169;BME280;16219;42.864;23.360;2024-02-21T00:27:03;96508.69;;;6.36;100.00
29169;BME280;16219;42.864;23.360;2024-02-21T00:29:30;96512.63;;;6.29;100.00
29169;BME280;16219;42.864;23.360;2024-02-21T00:31:57;96516.53;;;6.36;100.00
29169;BME280;16219;42.864;23.360;2024-02-21T00:34:24;96501.13;;;6.24;100.00
29169;BME280;16219;42.864;23.360;2024-02-21T00:36:51;96512.38;;;6.30;100.00
29169;BME280;16219;42.864;23.360;2024-02-21T00:39:18;96500.31;;;6.24;100.00
29169;BME280;16219;42.864;23.360;2024-02-21T00:41:45;96499.00;;;6.26;100.00
29169;BME280;16219;42.864;23.360;2024-02-21T00:44:13;96469.41;;;5.90;100.00
29169;BME280;16219;42.864;23.360;2024-02-21T00:46:40;96489.63;;;5.95;100.00
29169;BME280;16219;42.864;23.360;2024-02-21T00:49:07;96492.50;;;6.04;100.00
29169;BME280;16219;42.864;23.360;2024-02-21T00:51:34;96472.59;;;5.92;100.00
29169;BME280;16219;42.864;23.360;2024-02-21T00:54:01;96495.88;;;6.14;100.00
29169;BME280;16219;42.864;23.360;2024-02-21T00:56:28;96479.41;;;6.09;100.00
29169;BME280;16219;42.864;23.360;2024-02-21T00:58:56;96493.53;;;6.18;100.00
29169;BME280;16219;42.864;23.360;2024-02-21T01:01:25;96480.69;;;6.21;100.00
29169;BME280;16219;42.864;23.360;2024-02-21T01:03:52;96476.22;;;6.22;100.00
29169;BME280;16219;42.864;23.360;2024-02-21T01:06:20;96482.78;;;6.24;100.00
29169;BME280;16219;42.864;23.360;2024-02-21T01:08:47;96477.28;;;6.16;100.00
29169;BME280;16219;42.864;23.360;2024-02-21T01:11:14;96484.63;;;6.14;100.00
29169;BME280;16219;42.864;23.360;2024-02-21T01:13:41;96484.09;;;6.07;100.00
29169;BME280;16219;42.864;23.360;2024-02-21T01:16:08;96473.13;;;5.99;100.00
29169;BME280;16219;42.864;23.360;2024-02-21T01:18:38;96482.03;;;6.04;100.00
29169;BME280;16219;42.864;23.360;2024-02-21T01:21:06;96477.28;;;6.06;100.00
29169;BME280;16219;42.864;23.360;2024-02-21T01:23:36;96467.88;;;5.94;100.00
29169;BME280;16219;42.864;23.360;2024-02-21T01:26:03;96456.31;;;5.90;100.00
29169;BME280;16219;42.864;23.360;2024-02-21T01:28:30;96475.72;;;6.10;100.00
29169;BME280;16219;42.864;23.360;2024-02-21T01:30:57;96471.00;;;6.01;100.00
29169;BME280;16219;42.864;23.360;2024-02-21T01:33:25;96460.00;;;5.89;100.00
29169;BME280;16219;42.864;23.360;2024-02-21T01:35:53;96447.19;;;5.83;100.00
29169;BME280;16219;42.864;23.360;2024-02-21T01:38:20;96471.53;;;5.93;100.00
29169;BME280;16219;42.864;23.360;2024-02-21T01:40:47;96465.25;;;5.84;100.00
29169;BME280;16219;42.864;23.360;2024-02-21T01:43:16;96460.78;;;5.90;100.00
29169;BME280;16219;42.864;23.360;2024-02-21T01:45:46;96467.63;;;5.96;100.00
29169;BME280;16219;42.864;23.360;2024-02-21T01:48:17;96458.72;;;5.97;100.00
29169;BME280;16219;42.864;23.360;2024-02-21T01:50:44;96457.91;;;5.91;100.00
29169;BME280;16219;42.864;23.360;2024-02-21T01:53:13;96445.84;;;5.85;100.00
29169;BME280;16219;42.864;23.360;2024-02-21T01:55:44;96450.56;;;5.88;100.00
29169;BME280;16219;42.864;23.360;2024-02-21T01:58:12;96457.91;;;5.91;100.00
29169;BME280;16219;42.864;23.360;2024-02-21T02:00:40;96458.44;;;5.93;100.00
29169;BME280;16219;42.864;23.360;2024-02-21T02:03:10;96458.72;;;5.92;100.00
29169;BME280;16219;42.864;23.360;2024-02-21T02:05:43;96454.25;;;5.87;100.00
29169;BME280;16219;42.864;23.360;2024-02-21T02:08:13;96439.56;;;5.81;100.00
29169;BME280;16219;42.864;23.360;2024-02-21T02:10:40;96457.41;;;5.99;100.00
29169;BME280;16219;42.864;23.360;2024-02-21T02:13:08;96459.25;;;5.99;100.00
29169;BME280;16219;42.864;23.360;2024-02-21T02:15:38;96424.66;;;5.82;100.00
29169;BME280;16219;42.864;23.360;2024-02-21T02:18:06;96422.28;;;5.85;100.00
29169;BME280;16219;42.864;23.360;2024-02-21T02:20:33;96448.22;;;5.87;100.00
29169;BME280;16219;42.864;23.360;2024-02-21T02:23:01;96428.06;;;5.72;100.00
29169;BME280;16219;42.864;23.360;2024-02-21T02:25:34;96444.56;;;5.88;100.00
29169;BME280;16219;42.864;23.360;2024-02-21T02:28:00;96445.34;;;5.88;100.00
29169;BME280;16219;42.864;23.360;2024-02-21T02:30:27;96444.28;;;5.84;100.00
29169;BME280;16219;42.864;23.360;2024-02-21T02:32:55;96441.94;;;5.83;100.00
29169;BME280;16219;42.864;23.360;2024-02-21T02:35:22;96438.00;;;5.90;100.00
29169;BME280;16219;42.864;23.360;2024-02-21T02:37:49;96419.97;;;5.79;100.00
29169;BME280;16219;42.864;23.360;2024-02-21T02:40:16;96442.72;;;5.83;100.00
29169;BME280;16219;42.864;23.360;2024-02-21T02:42:45;96427.53;;;5.85;100.00
29169;BME280;16219;42.864;23.360;2024-02-21T02:45:12;96431.75;;;5.86;100.00
29169;BME280;16219;42.864;23.360;2024-02-21T02:47:39;96434.59;;;5.85;100.00
29169;BME280;16219;42.864;23.360;2024-02-21T02:50:07;96430.41;;;5.89;100.00
29169;BME280;16219;42.864;23.360;2024-02-21T02:52:34;96429.09;;;5.91;100.00
29169;BME280;16219;42.864;23.360;2024-02-21T02:55:01;96434.09;;;5.88;100.00
29169;BME280;16219;42.864;23.360;2024-02-21T02:57:28;96441.94;;;5.88;100.00
29169;BME280;16219;42.864;23.360;2024-02-21T02:59:56;96433.81;;;5.84;100.00
29169;BME280;16219;42.864;23.360;2024-02-21T03:02:24;96440.09;;;5.88;100.00
29169;BME280;16219;42.864;23.360;2024-02-21T03:04:51;96443.78;;;5.87;100.00
29169;BME280;16219;42.864;23.360;2024-02-21T03:07:19;96446.91;;;5.84;100.00
29169;BME280;16219;42.864;23.360;2024-02-21T03:09:46;96455.28;;;5.81;100.00
29169;BME280;16219;42.864;23.360;2024-02-21T03:12:13;96456.59;;;5.79;100.00
29169;BME280;16219;42.864;23.360;2024-02-21T03:14:44;96445.34;;;5.78;100.00
29169;BME280;16219;42.864;23.360;2024-02-21T03:17:13;96450.59;;;5.78;100.00
29169;BME280;16219;42.864;23.360;2024-02-21T03:19:40;96453.72;;;5.75;100.00
29169;BME280;16219;42.864;23.360;2024-02-21T03:22:06;96461.59;;;5.70;100.00
29169;BME280;16219;42.864;23.360;2024-02-21T03:24:33;96460.00;;;5.64;100.00
29169;BME280;16219;42.864;23.360;2024-02-21T03:27:00;96466.28;;;5.63;100.00
29169;BME280;16219;42.864;23.360;2024-02-21T03:29:27;96460.78;;;5.64;100.00
29169;BME280;16219;42.864;23.360;2024-02-21T03:31:54;96461.59;;;5.70;100.00
29169;BME280;16219;42.864;23.360;2024-02-21T03:34:23;96466.28;;;5.68;100.00
29169;BME280;16219;42.864;23.360;2024-02-21T03:36:50;96469.44;;;5.70;100.00
29169;BME280;16219;42.864;23.360;2024-02-21T03:39:17;96467.63;;;5.65;100.00
29169;BME280;16219;42.864;23.360;2024-02-21T03:41:43;96463.66;;;5.73;100.00
29169;BME280;16219;42.864;23.360;2024-02-21T03:44:10;96462.09;;;5.72;100.00
29169;BME280;16219;42.864;23.360;2024-02-21T03:46:37;96460.53;;;5.66;100.00
29169;BME280;16219;42.864;23.360;2024-02-21T03:49:04;96472.06;;;5.70;100.00
29169;BME280;16219;42.864;23.360;2024-02-21T03:51:32;96474.66;;;5.60;100.00
29169;BME280;16219;42.864;23.360;2024-02-21T03:53:59;96459.50;;;5.57;100.00
29169;BME280;16219;42.864;23.360;2024-02-21T03:56:26;96486.72;;;5.61;100.00
29169;BME280;16219;42.864;23.360;2024-02-21T03:58:53;96471.53;;;5.58;100.00
29169;BME280;16219;42.864;23.360;2024-02-21T04:01:21;96474.66;;;5.65;100.00
29169;BME280;16219;42.864;23.360;2024-02-21T04:03:48;96477.28;;;5.70;100.00
29169;BME280;16219;42.864;23.360;2024-02-21T04:06:15;96475.19;;;5.72;100.00
29169;BME280;16219;42.864;23.360;2024-02-21T04:08:43;96474.13;;;5.73;100.00
29169;BME280;16219;42.864;23.360;2024-02-21T04:11:10;96479.38;;;5.73;100.00
29169;BME280;16219;42.864;23.360;2024-02-21T04:13:37;96479.91;;;5.75;100.00
29169;BME280;16219;42.864;23.360;2024-02-21T04:16:04;96473.34;;;5.72;100.00
29169;BME280;16219;42.864;23.360;2024-02-21T04:18:32;96449.25;;;5.60;100.00
29169;BME280;16219;42.864;23.360;2024-02-21T04:20:59;96478.84;;;5.76;100.00
29169;BME280;16219;42.864;23.360;2024-02-21T04:23:26;96474.13;;;5.73;100.00
29169;BME280;16219;42.864;23.360;2024-02-21T04:25:54;96461.56;;;5.65;100.00
29169;BME280;16219;42.864;23.360;2024-02-21T04:28:21;96476.25;;;5.66;100.00
29169;BME280;16219;42.864;23.360;2024-02-21T04:30:48;96466.03;;;5.64;100.00
29169;BME280;16219;42.864;23.360;2024-02-21T04:33:15;96482.00;;;5.68;100.00
29169;BME280;16219;42.864;23.360;2024-02-21T04:35:42;96482.00;;;5.58;100.00
29169;BME280;16219;42.864;23.360;2024-02-21T04:38:09;96474.16;;;5.63;100.00
29169;BME280;16219;42.864;23.360;2024-02-21T04:40:36;96478.59;;;5.57;100.00
29169;BME280;16219;42.864;23.360;2024-02-21T04:43:04;96477.53;;;5.58;100.00
29169;BME280;16219;42.864;23.360;2024-02-21T04:45:32;96489.31;;;5.56;100.00
29169;BME280;16219;42.864;23.360;2024-02-21T04:47:58;96492.97;;;5.55;100.00
29169;BME280;16219;42.864;23.360;2024-02-21T04:50:25;96488.25;;;5.51;100.00
29169;BME280;16219;42.864;23.360;2024-02-21T04:52:53;96482.25;;;5.51;100.00
29169;BME280;16219;42.864;23.360;2024-02-21T04:55:19;96484.06;;;5.56;100.00
29169;BME280;16219;42.864;23.360;2024-02-21T04:57:46;96483.06;;;5.57;100.00
29169;BME280;16219;42.864;23.360;2024-02-21T05:00:15;96487.47;;;5.51;100.00
29169;BME280;16219;42.864;23.360;2024-02-21T05:02:43;96482.50;;;5.60;100.00
29169;BME280;16219;42.864;23.360;2024-02-21T05:05:09;96462.09;;;5.36;100.00
29169;BME280;16219;42.864;23.360;2024-02-21T05:07:36;96490.38;;;5.49;100.00
29169;BME280;16219;42.864;23.360;2024-02-21T05:10:04;96490.38;;;5.49;100.00
29169;BME280;16219;42.864;23.360;2024-02-21T05:12:32;96495.09;;;5.53;100.00
29169;BME280;16219;42.864;23.360;2024-02-21T05:14:59;96489.03;;;5.42;100.00
29169;BME280;16219;42.864;23.360;2024-02-21T05:17:28;96491.91;;;5.35;100.00
29169;BME280;16219;42.864;23.360;2024-02-21T05:19:55;96489.31;;;5.40;100.00
29169;BME280;16219;42.864;23.360;2024-02-21T05:22:22;96494.81;;;5.44;100.00
29169;BME280;16219;42.864;23.360;2024-02-21T05:24:49;96489.31;;;5.35;100.00
29169;BME280;16219;42.864;23.360;2024-02-21T05:27:16;96488.25;;;5.31;100.00
29169;BME280;16219;42.864;23.360;2024-02-21T05:29:43;96478.28;;;5.23;100.00
29169;BME280;16219;42.864;23.360;2024-02-21T05:32:10;96488.75;;;5.28;100.00
29169;BME280;16219;42.864;23.360;2024-02-21T05:34:38;96473.56;;;5.15;100.00
29169;BME280;16219;42.864;23.360;2024-02-21T05:37:06;96489.25;;;5.25;100.00
29169;BME280;16219;42.864;23.360;2024-02-21T05:39:33;96493.16;;;5.17;100.00
29169;BME280;16219;42.864;23.360;2024-02-21T05:42:00;96495.00;;;5.22;100.00
29169;BME280;16219;42.864;23.360;2024-02-21T05:44:27;96499.72;;;5.20;100.00
29169;BME280;16219;42.864;23.360;2024-02-21T05:46:54;96500.25;;;5.22;100.00
29169;BME280;16219;42.864;23.360;2024-02-21T05:49:21;96508.63;;;5.24;100.00
29169;BME280;16219;42.864;23.360;2024-02-21T05:52:09;96512.03;;;5.30;100.00
29169;BME280;16219;42.864;23.360;2024-02-21T05:54:37;96501.84;;;5.28;100.00
29169;BME280;16219;42.864;23.360;2024-02-21T05:57:07;96511.53;;;5.43;100.00
29169;BME280;16219;42.864;23.360;2024-02-21T05:59:35;96511.75;;;5.26;100.00
29169;BME280;16219;42.864;23.360;2024-02-21T06:02:06;96519.38;;;5.22;100.00
29169;BME280;16219;42.864;23.360;2024-02-21T06:04:33;96520.66;;;5.20;100.00
29169;BME280;16219;42.864;23.360;2024-02-21T06:07:00;96521.16;;;5.12;100.00
29169;BME280;16219;42.864;23.360;2024-02-21T06:09:29;96520.59;;;5.10;100.00
29169;BME280;16219;42.864;23.360;2024-02-21T06:11:57;96522.72;;;5.13;100.00
29169;BME280;16219;42.864;23.360;2024-02-21T06:14:24;96527.94;;;5.13;100.00
29169;BME280;16219;42.864;23.360;2024-02-21T06:16:51;96534.22;;;5.17;100.00
29169;BME280;16219;42.864;23.360;2024-02-21T06:19:18;96538.41;;;5.13;100.00
29169;BME280;16219;42.864;23.360;2024-02-21T06:21:45;96531.34;;;5.13;100.00
29169;BME280;16219;42.864;23.360;2024-02-21T06:24:12;96536.84;;;5.12;100.00
29169;BME280;16219;42.864;23.360;2024-02-21T06:26:41;96541.31;;;5.16;100.00
29169;BME280;16219;42.864;23.360;2024-02-21T06:29:08;96523.78;;;5.17;100.00
29169;BME280;16219;42.864;23.360;2024-02-21T06:31:35;96517.53;;;5.23;100.00
29169;BME280;16219;42.864;23.360;2024-02-21T06:34:02;96547.66;;;5.46;100.00
29169;BME280;16219;42.864;23.360;2024-02-21T06:36:30;96554.22;;;5.54;100.00
29169;BME280;16219;42.864;23.360;2024-02-21T06:38:56;96552.94;;;5.66;100.00
29169;BME280;16219;42.864;23.360;2024-02-21T06:41:24;96558.72;;;5.79;100.00
29169;BME280;16219;42.864;23.360;2024-02-21T06:43:52;96537.50;;;5.85;100.00
29169;BME280;16219;42.864;23.360;2024-02-21T06:46:23;96556.13;;;5.94;100.00
29169;BME280;16219;42.864;23.360;2024-02-21T06:48:51;96565.28;;;5.91;100.00
29169;BME280;16219;42.864;23.360;2024-02-21T06:51:18;96558.22;;;5.87;100.00
29169;BME280;16219;42.864;23.360;2024-02-21T06:53:45;96567.13;;;5.91;100.00
29169;BME280;16219;42.864;23.360;2024-02-21T06:56:12;96567.94;;;5.96;100.00
29169;BME280;16219;42.864;23.360;2024-02-21T06:58:39;96533.84;;;5.76;100.00
29169;BME280;16219;42.864;23.360;2024-02-21T07:01:08;96563.97;;;5.79;100.00
29169;BME280;16219;42.864;23.360;2024-02-21T07:03:35;96557.66;;;5.69;100.00
29169;BME280;16219;42.864;23.360;2024-02-21T07:06:03;96571.81;;;5.79;100.00
29169;BME280;16219;42.864;23.360;2024-02-21T07:08:30;96574.94;;;5.81;100.00
29169;BME280;16219;42.864;23.360;2024-02-21T07:10:57;96569.97;;;5.89;100.00
29169;BME280;16219;42.864;23.360;2024-02-21T07:13:24;96575.22;;;5.84;100.00
29169;BME280;16219;42.864;23.360;2024-02-21T07:15:50;96574.22;;;5.95;100.00
29169;BME280;16219;42.864;23.360;2024-02-21T07:18:19;96564.75;;;5.94;100.00
29169;BME280;16219;42.864;23.360;2024-02-21T07:20:46;96569.50;;;6.08;100.00
29169;BME280;16219;42.864;23.360;2024-02-21T07:23:13;96566.63;;;6.09;100.00
29169;BME280;16219;42.864;23.360;2024-02-21T07:25:40;96568.97;;;6.16;100.00
29169;BME280;16219;42.864;23.360;2024-02-21T07:28:07;96567.91;;;6.27;100.00
29169;BME280;16219;42.864;23.360;2024-02-21T07:30:34;96569.50;;;6.18;100.00
29169;BME280;16219;42.864;23.360;2024-02-21T07:33:01;96565.06;;;6.13;100.00
29169;BME280;16219;42.864;23.360;2024-02-21T07:35:30;96550.66;;;6.00;100.00
29169;BME280;16219;42.864;23.360;2024-02-21T07:37:57;96565.56;;;6.05;100.00
29169;BME280;16219;42.864;23.360;2024-02-21T07:40:24;96571.06;;;6.09;100.00
29169;BME280;16219;42.864;23.360;2024-02-21T07:42:51;96571.34;;;5.92;100.00
29169;BME280;16219;42.864;23.360;2024-02-21T07:45:18;96563.69;;;5.90;100.00
29169;BME280;16219;42.864;23.360;2024-02-21T07:47:47;96570.03;;;5.99;100.00
29169;BME280;16219;42.864;23.360;2024-02-21T07:50:14;96539.34;;;5.74;100.00
29169;BME280;16219;42.864;23.360;2024-02-21T07:52:43;96562.69;;;5.96;100.00
29169;BME280;16219;42.864;23.360;2024-02-21T07:55:10;96555.88;;;5.95;100.00
29169;BME280;16219;42.864;23.360;2024-02-21T07:57:37;96552.47;;;6.00;100.00
29169;BME280;16219;42.864;23.360;2024-02-21T08:00:05;96562.91;;;5.90;100.00
29169;BME280;16219;42.864;23.360;2024-02-21T08:02:40;96566.88;;;5.92;100.00
29169;BME280;16219;42.864;23.360;2024-02-21T08:05:09;96560.06;;;5.96;100.00
29169;BME280;16219;42.864;23.360;2024-02-21T08:07:37;96544.88;;;5.93;100.00
29169;BME280;16219;42.864;23.360;2024-02-21T08:10:07;96560.06;;;6.27;100.00
29169;BME280;16219;42.864;23.360;2024-02-21T08:12:34;96557.44;;;6.47;100.00
29169;BME280;16219;42.864;23.360;2024-02-21T08:15:02;96556.81;;;6.81;100.00
29169;BME280;16219;42.864;23.360;2024-02-21T08:17:30;96557.81;;;6.95;100.00
29169;BME280;16219;42.864;23.360;2024-02-21T08:19:57;96560.91;;;7.13;100.00
29169;BME280;16219;42.864;23.360;2024-02-21T08:22:24;96544.34;;;7.22;100.00
29169;BME280;16219;42.864;23.360;2024-02-21T08:24:51;96545.53;;;7.45;100.00
29169;BME280;16219;42.864;23.360;2024-02-21T08:27:20;96547.59;;;7.54;100.00
29169;BME280;16219;42.864;23.360;2024-02-21T08:29:47;96552.53;;;7.60;100.00
29169;BME280;16219;42.864;23.360;2024-02-21T08:32:14;96551.53;;;7.56;100.00
29169;BME280;16219;42.864;23.360;2024-02-21T08:34:41;96556.47;;;7.63;100.00
29169;BME280;16219;42.864;23.360;2024-02-21T08:37:08;96520.38;;;7.34;100.00
29169;BME280;16219;42.864;23.360;2024-02-21T08:39:36;96559.13;;;7.58;100.00
29169;BME280;16219;42.864;23.360;2024-02-21T08:42:04;96548.09;;;7.56;100.00
29169;BME280;16219;42.864;23.360;2024-02-21T08:44:32;96554.91;;;7.62;100.00
29169;BME280;16219;42.864;23.360;2024-02-21T08:46:59;96553.88;;;7.58;100.00
29169;BME280;16219;42.864;23.360;2024-02-21T08:49:29;96550.25;;;7.48;100.00
29169;BME280;16219;42.864;23.360;2024-02-21T08:51:56;96554.72;;;7.48;100.00
29169;BME280;16219;42.864;23.360;2024-02-21T08:54:24;96549.41;;;7.58;100.00
29169;BME280;16219;42.864;23.360;2024-02-21T08:56:51;96555.59;;;7.72;100.00
29169;BME280;16219;42.864;23.360;2024-02-21T08:59:18;96558.63;;;7.95;100.00
29169;BME280;16219;42.864;23.360;2024-02-21T09:01:47;96558.78;;;8.09;100.00
29169;BME280;16219;42.864;23.360;2024-02-21T09:04:14;96555.41;;;8.32;100.00
29169;BME280;16219;42.864;23.360;2024-02-21T09:06:41;96561.59;;;8.51;100.00
29169;BME280;16219;42.864;23.360;2024-02-21T09:09:09;96565.34;;;8.45;100.00
29169;BME280;16219;42.864;23.360;2024-02-21T09:11:36;96562.63;;;8.56;100.00
29169;BME280;16219;42.864;23.360;2024-02-21T09:14:03;96554.63;;;8.66;100.00
29169;BME280;16219;42.864;23.360;2024-02-21T09:16:31;96560.34;;;8.73;100.00
29169;BME280;16219;42.864;23.360;2024-02-21T09:18:59;96559.03;;;8.70;100.00
29169;BME280;16219;42.864;23.360;2024-02-21T09:21:27;96547.31;;;8.63;100.00
29169;BME280;16219;42.864;23.360;2024-02-21T09:23:54;96553.06;;;8.65;100.00
29169;BME280;16219;42.864;23.360;2024-02-21T09:26:22;96546.84;;;8.56;100.00
29169;BME280;16219;42.864;23.360;2024-02-21T09:28:49;96552.28;;;8.64;100.00
29169;BME280;16219;42.864;23.360;2024-02-21T09:31:17;96542.47;;;8.70;100.00
29169;BME280;16219;42.864;23.360;2024-02-21T09:33:44;96543.66;;;9.07;100.00
29169;BME280;16219;42.864;23.360;2024-02-21T09:36:12;96548.59;;;9.32;100.00
29169;BME280;16219;42.864;23.360;2024-02-21T09:38:39;96543.00;;;9.58;100.00
29169;BME280;16219;42.864;23.360;2024-02-21T09:41:15;96535.31;;;9.61;100.00
29169;BME280;16219;42.864;23.360;2024-02-21T09:43:44;96543.56;;;9.55;100.00
29169;BME280;16219;42.864;23.360;2024-02-21T09:46:16;96529.25;;;9.42;100.00
29169;BME280;16219;42.864;23.360;2024-02-21T09:48:58;96534.44;;;9.47;100.00
29169;BME280;16219;42.864;23.360;2024-02-21T09:51:34;96536.44;;;9.74;100.00
29169;BME280;16219;42.864;23.360;2024-02-21T09:54:02;96527.88;;;10.01;100.00
29169;BME280;16219;42.864;23.360;2024-02-21T09:56:30;96530.22;;;10.02;100.00
29169;BME280;16219;42.864;23.360;2024-02-21T09:58:58;96532.34;;;10.00;100.00
29169;BME280;16219;42.864;23.360;2024-02-21T10:01:26;96526.47;;;9.90;100.00
29169;BME280;16219;42.864;23.360;2024-02-21T10:03:52;96534.09;;;9.91;100.00
29169;BME280;16219;42.864;23.360;2024-02-21T10:06:19;96531.94;;;9.93;100.00
29169;BME280;16219;42.864;23.360;2024-02-21T10:08:53;96532.34;;;10.00;100.00
29169;BME280;16219;42.864;23.360;2024-02-21T10:11:23;96524.88;;;10.08;100.00
29169;BME280;16219;42.864;23.360;2024-02-21T10:13:50;96517.09;;;9.97;100.00
29169;BME280;16219;42.864;23.360;2024-02-21T10:16:18;96530.34;;;10.11;100.00
29169;BME280;16219;42.864;23.360;2024-02-21T10:18:45;96523.22;;;10.12;100.00
29169;BME280;16219;42.864;23.360;2024-02-21T10:21:12;96511.19;;;10.06;100.00
29169;BME280;16219;42.864;23.360;2024-02-21T10:23:55;96510.94;;;10.21;100.00
29169;BME280;16219;42.864;23.360;2024-02-21T10:26:22;96502.41;;;10.57;100.00
29169;BME280;16219;42.864;23.360;2024-02-21T10:28:49;96493.63;;;10.61;100.00
29169;BME280;16219;42.864;23.360;2024-02-21T10:31:24;96493.25;;;10.68;100.00
29169;BME280;16219;42.864;23.360;2024-02-21T10:33:54;96493.63;;;10.61;100.00
29169;BME280;16219;42.864;23.360;2024-02-21T10:36:22;96492.22;;;10.36;100.00
29169;BME280;16219;42.864;23.360;2024-02-21T10:38:50;96476.66;;;10.21;100.00
29169;BME280;16219;42.864;23.360;2024-02-21T10:41:19;96481.63;;;10.22;100.00
29169;BME280;16219;42.864;23.360;2024-02-21T10:43:49;96458.78;;;10.18;100.00
29169;BME280;16219;42.864;23.360;2024-02-21T10:46:19;96470.81;;;10.24;100.00
29169;BME280;16219;42.864;23.360;2024-02-21T10:48:47;96463.91;;;10.28;100.00
29169;BME280;16219;42.864;23.360;2024-02-21T10:51:18;96461.56;;;10.40;100.00
29169;BME280;16219;42.864;23.360;2024-02-21T10:56:35;96445.56;;;10.37;100.00
29169;BME280;16219;42.864;23.360;2024-02-21T10:59:07;96444.59;;;10.46;100.00
29169;BME280;16219;42.864;23.360;2024-02-21T11:01:34;96444.19;;;10.39;100.00
29169;BME280;16219;42.864;23.360;2024-02-21T11:04:03;96435.78;;;10.51;100.00
29169;BME280;16219;42.864;23.360;2024-02-21T11:06:32;96433.91;;;10.93;100.00
29169;BME280;16219;42.864;23.360;2024-02-21T11:09:03;96431.81;;;11.04;100.00
29169;BME280;16219;42.864;23.360;2024-02-21T11:11:34;96424.59;;;10.95;98.03
29169;BME280;16219;42.864;23.360;2024-02-21T11:14:10;96427.56;;;10.80;99.72
29169;BME280;16219;42.864;23.360;2024-02-21T11:16:40;96432.66;;;10.76;100.00
29169;BME280;16219;42.864;23.360;2024-02-21T11:19:09;96426.59;;;10.76;100.00
29169;BME280;16219;42.864;23.360;2024-02-21T11:21:37;96421.34;;;10.62;100.00
29169;BME280;16219;42.864;23.360;2024-02-21T11:24:04;96428.66;;;10.51;100.00
29169;BME280;16219;42.864;23.360;2024-02-21T11:26:33;96418.28;;;10.55;100.00
29169;BME280;16219;42.864;23.360;2024-02-21T11:29:01;96418.97;;;10.61;100.00
29169;BME280;16219;42.864;23.360;2024-02-21T11:31:38;96413.69;;;10.61;100.00
29169;BME280;16219;42.864;23.360;2024-02-21T11:34:08;96417.63;;;10.49;98.42
29169;BME280;16219;42.864;23.360;2024-02-21T11:36:35;96405.09;;;10.55;98.18
29169;BME280;16219;42.864;23.360;2024-02-21T11:39:05;96404.53;;;10.58;98.83
29169;BME280;16219;42.864;23.360;2024-02-21T11:41:34;96402.34;;;10.60;100.00
29169;BME280;16219;42.864;23.360;2024-02-21T11:44:00;96405.88;;;10.56;100.00
29169;BME280;16219;42.864;23.360;2024-02-21T11:46:27;96399.81;;;10.55;98.76
29169;BME280;16219;42.864;23.360;2024-02-21T11:48:54;96404.03;;;10.56;97.04
29169;BME280;16219;42.864;23.360;2024-02-21T11:51:25;96401.41;;;10.42;93.86
29169;BME280;16219;42.864;23.360;2024-02-21T11:53:53;96391.03;;;10.32;96.74
29169;BME280;16219;42.864;23.360;2024-02-21T11:56:20;96390.25;;;10.32;95.57
29169;BME280;16219;42.864;23.360;2024-02-21T11:58:49;96384.66;;;10.19;98.19
29169;BME280;16219;42.864;23.360;2024-02-21T12:01:16;96374.00;;;10.11;99.74
29169;BME280;16219;42.864;23.360;2024-02-21T12:03:43;96376.94;;;10.09;100.00
29169;BME280;16219;42.864;23.360;2024-02-21T12:06:16;96377.91;;;9.86;100.00
29169;BME280;16219;42.864;23.360;2024-02-21T12:08:47;96386.66;;;9.81;98.49
29169;BME280;16219;42.864;23.360;2024-02-21T12:11:19;96390.75;;;9.73;100.00
29169;BME280;16219;42.864;23.360;2024-02-21T12:13:46;96389.16;;;9.59;100.00
29169;BME280;16219;42.864;23.360;2024-02-21T12:16:16;96397.38;;;9.38;100.00
29169;BME280;16219;42.864;23.360;2024-02-21T12:18:45;96396.63;;;9.19;100.00
29169;BME280;16219;42.864;23.360;2024-02-21T12:21:12;96395.28;;;9.02;100.00
29169;BME280;16219;42.864;23.360;2024-02-21T12:23:39;96396.91;;;8.80;100.00
29169;BME280;16219;42.864;23.360;2024-02-21T12:26:06;96373.81;;;8.52;100.00
29169;BME280;16219;42.864;23.360;2024-02-21T12:28:33;96379.09;;;8.52;100.00
29169;BME280;16219;42.864;23.360;2024-02-21T12:31:00;96379.63;;;8.49;100.00
29169;BME280;16219;42.864;23.360;2024-02-21T12:33:31;96388.50;;;8.59;100.00
29169;BME280;16219;42.864;23.360;2024-02-21T12:35:58;96382.56;;;8.48;100.00
29169;BME280;16219;42.864;23.360;2024-02-21T12:38:25;96388.44;;;8.40;100.00
29169;BME280;16219;42.864;23.360;2024-02-21T12:40:52;96385.06;;;8.34;100.00
29169;BME280;16219;42.864;23.360;2024-02-21T12:43:19;96379.22;;;8.42;100.00
29169;BME280;16219;42.864;23.360;2024-02-21T12:45:48;96371.25;;;8.47;100.00
29169;BME280;16219;42.864;23.360;2024-02-21T12:48:15;96372.19;;;8.57;100.00
29169;BME280;16219;42.864;23.360;2024-02-21T12:50:48;96375.03;;;8.60;100.00
29169;BME280;16219;42.864;23.360;2024-02-21T12:53:16;96375.28;;;8.64;100.00